Terminal Aerodrome Forecast
Issued by NWS Wilmington, NC

Home | Current Version | Previous Version | Text Only | Print | Product List | Glossary On
Versions: 1 2 3 4 5 6 7 8 9 10 11 12 13 14
977
FTUS42 KILM 142320
TAFMYR
TAF
KMYR 142320Z 1500/1524 11008KT P6SM BKN050
     FM150400 07009KT P6SM BKN040
     FM151300 10006KT 6SM -RA BKN020
     FM151600 15009KT 3SM -RA BR BKN008
     FM151800 14012KT 4SM BR OVC007
      TEMPO 1518/1521 4SM -RA OVC007
     FM152100 15010KT 2SM BR OVC007
      TEMPO 1521/1524 2SM -RA OVC007
      AMD LTD TO CLD VIS AND WIND 1504/1511=

USA.gov is the U.S. government's official web portal to all federal, state and local government web resources and services.